sensor_id;sensor_type;location;lat;lon;timestamp;P1;durP1;ratioP1;P2;durP2;ratioP2
24521;SDS011;12680;57.804;12.190;2023-01-16T00:02:21;7.38;;;1.33;;
24521;SDS011;12680;57.804;12.190;2023-01-16T00:04:48;7.07;;;1.30;;
24521;SDS011;12680;57.804;12.190;2023-01-16T00:07:15;6.65;;;1.25;;
24521;SDS011;12680;57.804;12.190;2023-01-16T00:09:42;10.93;;;2.33;;
24521;SDS011;12680;57.804;12.190;2023-01-16T00:12:08;4.35;;;1.17;;
24521;SDS011;12680;57.804;12.190;2023-01-16T00:14:35;7.78;;;1.38;;
24521;SDS011;12680;57.804;12.190;2023-01-16T00:17:02;11.70;;;1.77;;
24521;SDS011;12680;57.804;12.190;2023-01-16T00:19:30;9.30;;;1.38;;
24521;SDS011;12680;57.804;12.190;2023-01-16T00:21:57;6.63;;;1.05;;
24521;SDS011;12680;57.804;12.190;2023-01-16T00:24:24;5.35;;;1.30;;
24521;SDS011;12680;57.804;12.190;2023-01-16T00:26:51;6.88;;;1.33;;
24521;SDS011;12680;57.804;12.190;2023-01-16T00:29:18;8.07;;;1.30;;
24521;SDS011;12680;57.804;12.190;2023-01-16T00:31:45;4.47;;;1.08;;
24521;SDS011;12680;57.804;12.190;2023-01-16T00:34:11;4.80;;;1.10;;
24521;SDS011;12680;57.804;12.190;2023-01-16T00:36:38;6.07;;;1.20;;
24521;SDS011;12680;57.804;12.190;2023-01-16T00:39:05;6.38;;;1.15;;
24521;SDS011;12680;57.804;12.190;2023-01-16T00:41:33;3.63;;;1.00;;
24521;SDS011;12680;57.804;12.190;2023-01-16T00:43:59;8.75;;;1.15;;
24521;SDS011;12680;57.804;12.190;2023-01-16T00:46:26;8.88;;;1.33;;
24521;SDS011;12680;57.804;12.190;2023-01-16T00:48:55;3.03;;;1.30;;
24521;SDS011;12680;57.804;12.190;2023-01-16T00:51:22;6.80;;;0.90;;
24521;SDS011;12680;57.804;12.190;2023-01-16T00:53:49;12.55;;;1.40;;
24521;SDS011;12680;57.804;12.190;2023-01-16T00:56:16;8.80;;;1.77;;
24521;SDS011;12680;57.804;12.190;2023-01-16T00:58:43;6.45;;;0.68;;
24521;SDS011;12680;57.804;12.190;2023-01-16T01:01:10;10.85;;;1.90;;
24521;SDS011;12680;57.804;12.190;2023-01-16T01:03:39;8.95;;;2.05;;
24521;SDS011;12680;57.804;12.190;2023-01-16T01:06:07;5.45;;;1.15;;
24521;SDS011;12680;57.804;12.190;2023-01-16T01:08:35;5.22;;;1.33;;
24521;SDS011;12680;57.804;12.190;2023-01-16T01:11:12;10.63;;;1.20;;
24521;SDS011;12680;57.804;12.190;2023-01-16T01:13:40;13.85;;;1.75;;
24521;SDS011;12680;57.804;12.190;2023-01-16T01:16:07;8.68;;;1.33;;
24521;SDS011;12680;57.804;12.190;2023-01-16T01:18:35;8.02;;;1.65;;
24521;SDS011;12680;57.804;12.190;2023-01-16T01:21:19;6.85;;;1.48;;
24521;SDS011;12680;57.804;12.190;2023-01-16T01:23:46;7.18;;;1.83;;
24521;SDS011;12680;57.804;12.190;2023-01-16T01:26:14;10.00;;;1.42;;
24521;SDS011;12680;57.804;12.190;2023-01-16T01:28:42;10.02;;;1.20;;
24521;SDS011;12680;57.804;12.190;2023-01-16T01:31:10;7.15;;;1.55;;
24521;SDS011;12680;57.804;12.190;2023-01-16T01:33:38;5.65;;;1.10;;
24521;SDS011;12680;57.804;12.190;2023-01-16T01:36:05;14.57;;;1.42;;
24521;SDS011;12680;57.804;12.190;2023-01-16T01:38:33;6.93;;;1.58;;
24521;SDS011;12680;57.804;12.190;2023-01-16T01:41:00;11.02;;;1.95;;
24521;SDS011;12680;57.804;12.190;2023-01-16T01:46:07;10.05;;;1.55;;
24521;SDS011;12680;57.804;12.190;2023-01-16T01:48:43;7.90;;;1.00;;
24521;SDS011;12680;57.804;12.190;2023-01-16T01:51:17;13.13;;;2.25;;
24521;SDS011;12680;57.804;12.190;2023-01-16T01:53:55;8.88;;;1.48;;
24521;SDS011;12680;57.804;12.190;2023-01-16T01:56:30;12.48;;;1.55;;
24521;SDS011;12680;57.804;12.190;2023-01-16T01:59:06;10.20;;;1.52;;
24521;SDS011;12680;57.804;12.190;2023-01-16T02:01:37;10.52;;;1.60;;
24521;SDS011;12680;57.804;12.190;2023-01-16T02:04:05;7.90;;;1.33;;
24521;SDS011;12680;57.804;12.190;2023-01-16T02:06:42;4.82;;;1.20;;
24521;SDS011;12680;57.804;12.190;2023-01-16T02:09:12;10.60;;;1.27;;
24521;SDS011;12680;57.804;12.190;2023-01-16T02:11:42;7.20;;;1.63;;
24521;SDS011;12680;57.804;12.190;2023-01-16T02:14:23;6.50;;;1.55;;
24521;SDS011;12680;57.804;12.190;2023-01-16T02:16:54;9.70;;;1.48;;
24521;SDS011;12680;57.804;12.190;2023-01-16T02:19:57;20.45;;;1.98;;
24521;SDS011;12680;57.804;12.190;2023-01-16T02:31:13;8.85;;;1.50;;
24521;SDS011;12680;57.804;12.190;2023-01-16T02:39:50;5.63;;;1.35;;
24521;SDS011;12680;57.804;12.190;2023-01-16T02:42:47;8.30;;;1.27;;
24521;SDS011;12680;57.804;12.190;2023-01-16T02:45:29;8.35;;;1.42;;
24521;SDS011;12680;57.804;12.190;2023-01-16T02:48:35;11.32;;;1.23;;
24521;SDS011;12680;57.804;12.190;2023-01-16T02:54:19;12.88;;;1.85;;
24521;SDS011;12680;57.804;12.190;2023-01-16T02:56:43;8.50;;;1.77;;
24521;SDS011;12680;57.804;12.190;2023-01-16T02:59:38;9.90;;;2.17;;
24521;SDS011;12680;57.804;12.190;2023-01-16T03:02:07;12.55;;;1.77;;
24521;SDS011;12680;57.804;12.190;2023-01-16T03:04:46;14.15;;;2.72;;
24521;SDS011;12680;57.804;12.190;2023-01-16T03:15:30;15.15;;;1.77;;
24521;SDS011;12680;57.804;12.190;2023-01-16T03:21:17;9.43;;;1.80;;
24521;SDS011;12680;57.804;12.190;2023-01-16T03:23:53;9.65;;;1.35;;
24521;SDS011;12680;57.804;12.190;2023-01-16T03:26:28;11.05;;;1.35;;
24521;SDS011;12680;57.804;12.190;2023-01-16T03:34:42;13.02;;;1.60;;
24521;SDS011;12680;57.804;12.190;2023-01-16T03:37:11;12.35;;;2.20;;
24521;SDS011;12680;57.804;12.190;2023-01-16T03:40:01;7.30;;;1.65;;
24521;SDS011;12680;57.804;12.190;2023-01-16T03:42:32;7.25;;;1.98;;
24521;SDS011;12680;57.804;12.190;2023-01-16T03:45:20;12.13;;;1.75;;
24521;SDS011;12680;57.804;12.190;2023-01-16T03:47:56;15.32;;;2.10;;
24521;SDS011;12680;57.804;12.190;2023-01-16T03:50:47;8.68;;;1.73;;
24521;SDS011;12680;57.804;12.190;2023-01-16T03:53:23;12.00;;;2.22;;
24521;SDS011;12680;57.804;12.190;2023-01-16T03:58:48;14.43;;;2.00;;
24521;SDS011;12680;57.804;12.190;2023-01-16T04:03:44;9.07;;;2.10;;
24521;SDS011;12680;57.804;12.190;2023-01-16T04:06:20;13.00;;;1.80;;
24521;SDS011;12680;57.804;12.190;2023-01-16T04:08:52;12.82;;;2.03;;
24521;SDS011;12680;57.804;12.190;2023-01-16T04:11:22;12.27;;;2.40;;
24521;SDS011;12680;57.804;12.190;2023-01-16T04:13:52;15.98;;;2.15;;
24521;SDS011;12680;57.804;12.190;2023-01-16T04:16:22;14.75;;;2.97;;
24521;SDS011;12680;57.804;12.190;2023-01-16T04:18:49;11.48;;;1.90;;
24521;SDS011;12680;57.804;12.190;2023-01-16T04:21:19;9.38;;;1.73;;
24521;SDS011;12680;57.804;12.190;2023-01-16T04:23:52;12.55;;;2.03;;
24521;SDS011;12680;57.804;12.190;2023-01-16T04:26:21;12.82;;;2.17;;
24521;SDS011;12680;57.804;12.190;2023-01-16T04:28:47;14.20;;;2.30;;
24521;SDS011;12680;57.804;12.190;2023-01-16T04:33:45;15.70;;;2.47;;
24521;SDS011;12680;57.804;12.190;2023-01-16T04:36:12;10.65;;;2.53;;
24521;SDS011;12680;57.804;12.190;2023-01-16T04:38:39;15.13;;;2.10;;
24521;SDS011;12680;57.804;12.190;2023-01-16T04:41:05;12.23;;;1.90;;
24521;SDS011;12680;57.804;12.190;2023-01-16T04:43:32;15.15;;;2.33;;
24521;SDS011;12680;57.804;12.190;2023-01-16T04:45:59;11.00;;;1.95;;
24521;SDS011;12680;57.804;12.190;2023-01-16T04:48:26;9.75;;;2.03;;
24521;SDS011;12680;57.804;12.190;2023-01-16T04:50:52;10.82;;;2.10;;
24521;SDS011;12680;57.804;12.190;2023-01-16T04:53:19;17.77;;;2.50;;
24521;SDS011;12680;57.804;12.190;2023-01-16T04:55:46;13.00;;;2.38;;
24521;SDS011;12680;57.804;12.190;2023-01-16T04:58:12;16.95;;;2.95;;
24521;SDS011;12680;57.804;12.190;2023-01-16T05:00:39;13.93;;;2.05;;
24521;SDS011;12680;57.804;12.190;2023-01-16T05:03:06;15.45;;;2.13;;
24521;SDS011;12680;57.804;12.190;2023-01-16T05:05:33;16.80;;;2.75;;
24521;SDS011;12680;57.804;12.190;2023-01-16T05:07:59;12.20;;;2.13;;
24521;SDS011;12680;57.804;12.190;2023-01-16T05:10:46;13.88;;;1.98;;
24521;SDS011;12680;57.804;12.190;2023-01-16T05:13:13;11.27;;;2.60;;
24521;SDS011;12680;57.804;12.190;2023-01-16T05:15:41;16.88;;;1.88;;
24521;SDS011;12680;57.804;12.190;2023-01-16T05:18:09;11.40;;;1.77;;
24521;SDS011;12680;57.804;12.190;2023-01-16T05:20:38;11.93;;;2.17;;
24521;SDS011;12680;57.804;12.190;2023-01-16T05:23:05;15.20;;;2.95;;
24521;SDS011;12680;57.804;12.190;2023-01-16T05:25:34;11.00;;;2.35;;
24521;SDS011;12680;57.804;12.190;2023-01-16T05:28:01;10.73;;;2.50;;
24521;SDS011;12680;57.804;12.190;2023-01-16T05:30:29;11.80;;;2.20;;
24521;SDS011;12680;57.804;12.190;2023-01-16T05:32:56;16.02;;;2.30;;
24521;SDS011;12680;57.804;12.190;2023-01-16T05:35:23;16.67;;;2.55;;
24521;SDS011;12680;57.804;12.190;2023-01-16T05:37:49;12.70;;;2.38;;
24521;SDS011;12680;57.804;12.190;2023-01-16T05:40:16;16.95;;;2.53;;
24521;SDS011;12680;57.804;12.190;2023-01-16T05:42:43;13.48;;;1.98;;
24521;SDS011;12680;57.804;12.190;2023-01-16T05:45:11;14.40;;;2.38;;
24521;SDS011;12680;57.804;12.190;2023-01-16T05:47:37;16.40;;;2.63;;
24521;SDS011;12680;57.804;12.190;2023-01-16T05:50:04;10.98;;;2.25;;
24521;SDS011;12680;57.804;12.190;2023-01-16T05:52:32;19.08;;;2.22;;
24521;SDS011;12680;57.804;12.190;2023-01-16T05:54:58;16.10;;;1.83;;
24521;SDS011;12680;57.804;12.190;2023-01-16T05:57:25;14.05;;;2.90;;
24521;SDS011;12680;57.804;12.190;2023-01-16T05:59:52;13.43;;;1.92;;
24521;SDS011;12680;57.804;12.190;2023-01-16T06:02:20;14.45;;;2.75;;
24521;SDS011;12680;57.804;12.190;2023-01-16T06:04:47;23.20;;;2.88;;
24521;SDS011;12680;57.804;12.190;2023-01-16T06:07:14;13.07;;;2.35;;
24521;SDS011;12680;57.804;12.190;2023-01-16T06:09:41;16.77;;;2.70;;
24521;SDS011;12680;57.804;12.190;2023-01-16T06:12:11;9.77;;;2.13;;
24521;SDS011;12680;57.804;12.190;2023-01-16T06:14:40;14.73;;;3.00;;
24521;SDS011;12680;57.804;12.190;2023-01-16T06:17:07;19.15;;;2.83;;
24521;SDS011;12680;57.804;12.190;2023-01-16T06:19:34;13.45;;;2.30;;
24521;SDS011;12680;57.804;12.190;2023-01-16T06:22:00;18.90;;;2.47;;
24521;SDS011;12680;57.804;12.190;2023-01-16T06:24:27;18.35;;;2.60;;
24521;SDS011;12680;57.804;12.190;2023-01-16T06:26:54;19.27;;;2.83;;
24521;SDS011;12680;57.804;12.190;2023-01-16T06:29:21;16.70;;;2.50;;
24521;SDS011;12680;57.804;12.190;2023-01-16T06:31:47;18.83;;;3.53;;
24521;SDS011;12680;57.804;12.190;2023-01-16T06:34:14;21.05;;;2.42;;
24521;SDS011;12680;57.804;12.190;2023-01-16T06:36:41;21.08;;;2.58;;
24521;SDS011;12680;57.804;12.190;2023-01-16T06:39:10;19.00;;;2.15;;
24521;SDS011;12680;57.804;12.190;2023-01-16T06:41:37;25.88;;;3.05;;
24521;SDS011;12680;57.804;12.190;2023-01-16T06:44:04;19.33;;;3.78;;
24521;SDS011;12680;57.804;12.190;2023-01-16T06:46:31;15.60;;;2.47;;
24521;SDS011;12680;57.804;12.190;2023-01-16T06:48:57;16.27;;;2.55;;
24521;SDS011;12680;57.804;12.190;2023-01-16T06:51:24;18.63;;;3.00;;
24521;SDS011;12680;57.804;12.190;2023-01-16T06:53:51;9.32;;;2.08;;
24521;SDS011;12680;57.804;12.190;2023-01-16T06:56:18;16.55;;;2.88;;
24521;SDS011;12680;57.804;12.190;2023-01-16T06:58:45;15.40;;;2.20;;
24521;SDS011;12680;57.804;12.190;2023-01-16T07:01:11;12.70;;;2.05;;
24521;SDS011;12680;57.804;12.190;2023-01-16T07:03:38;24.58;;;2.33;;
24521;SDS011;12680;57.804;12.190;2023-01-16T07:06:05;14.38;;;2.35;;
24521;SDS011;12680;57.804;12.190;2023-01-16T07:08:32;16.42;;;2.20;;
24521;SDS011;12680;57.804;12.190;2023-01-16T07:10:59;14.98;;;2.75;;
24521;SDS011;12680;57.804;12.190;2023-01-16T07:13:26;19.17;;;2.53;;
24521;SDS011;12680;57.804;12.190;2023-01-16T07:15:55;11.00;;;2.47;;
24521;SDS011;12680;57.804;12.190;2023-01-16T07:18:40;11.48;;;2.47;;
24521;SDS011;12680;57.804;12.190;2023-01-16T07:21:16;10.80;;;1.67;;
24521;SDS011;12680;57.804;12.190;2023-01-16T07:24:07;16.38;;;2.67;;
24521;SDS011;12680;57.804;12.190;2023-01-16T07:26:36;9.30;;;2.47;;
24521;SDS011;12680;57.804;12.190;2023-01-16T07:29:06;14.63;;;2.40;;
24521;SDS011;12680;57.804;12.190;2023-01-16T07:31:33;15.90;;;1.95;;
24521;SDS011;12680;57.804;12.190;2023-01-16T07:34:00;10.43;;;1.90;;
24521;SDS011;12680;57.804;12.190;2023-01-16T07:36:27;8.98;;;2.22;;
24521;SDS011;12680;57.804;12.190;2023-01-16T07:38:54;13.60;;;2.25;;
24521;SDS011;12680;57.804;12.190;2023-01-16T07:41:21;26.35;;;2.72;;
24521;SDS011;12680;57.804;12.190;2023-01-16T07:43:47;14.75;;;2.08;;
24521;SDS011;12680;57.804;12.190;2023-01-16T07:46:14;10.93;;;2.00;;
24521;SDS011;12680;57.804;12.190;2023-01-16T07:48:41;9.60;;;1.73;;
24521;SDS011;12680;57.804;12.190;2023-01-16T07:51:07;13.82;;;1.88;;
24521;SDS011;12680;57.804;12.190;2023-01-16T07:53:34;12.93;;;2.28;;
24521;SDS011;12680;57.804;12.190;2023-01-16T07:56:01;15.82;;;2.92;;
24521;SDS011;12680;57.804;12.190;2023-01-16T07:58:29;15.57;;;2.50;;
24521;SDS011;12680;57.804;12.190;2023-01-16T08:00:56;12.75;;;2.28;;
24521;SDS011;12680;57.804;12.190;2023-01-16T08:03:23;12.70;;;2.13;;
24521;SDS011;12680;57.804;12.190;2023-01-16T08:05:57;10.85;;;2.42;;
24521;SDS011;12680;57.804;12.190;2023-01-16T08:08:25;15.75;;;2.25;;
24521;SDS011;12680;57.804;12.190;2023-01-16T08:10:53;14.45;;;2.20;;
24521;SDS011;12680;57.804;12.190;2023-01-16T08:13:23;10.70;;;2.40;;
24521;SDS011;12680;57.804;12.190;2023-01-16T08:15:50;17.42;;;1.73;;
24521;SDS011;12680;57.804;12.190;2023-01-16T08:18:19;15.45;;;2.05;;
24521;SDS011;12680;57.804;12.190;2023-01-16T08:20:46;12.93;;;1.75;;
24521;SDS011;12680;57.804;12.190;2023-01-16T08:23:13;10.98;;;1.85;;
24521;SDS011;12680;57.804;12.190;2023-01-16T08:25:39;6.88;;;1.80;;
24521;SDS011;12680;57.804;12.190;2023-01-16T08:28:06;5.47;;;1.35;;
24521;SDS011;12680;57.804;12.190;2023-01-16T08:30:33;11.52;;;1.55;;
24521;SDS011;12680;57.804;12.190;2023-01-16T08:33:00;5.70;;;1.25;;
24521;SDS011;12680;57.804;12.190;2023-01-16T08:35:27;13.43;;;1.80;;
24521;SDS011;12680;57.804;12.190;2023-01-16T08:37:54;11.25;;;1.38;;
24521;SDS011;12680;57.804;12.190;2023-01-16T08:40:21;10.02;;;1.42;;
24521;SDS011;12680;57.804;12.190;2023-01-16T08:42:48;9.38;;;1.60;;
24521;SDS011;12680;57.804;12.190;2023-01-16T08:45:33;15.05;;;1.73;;
24521;SDS011;12680;57.804;12.190;2023-01-16T08:48:25;11.00;;;1.60;;
24521;SDS011;12680;57.804;12.190;2023-01-16T08:51:18;6.57;;;1.20;;
24521;SDS011;12680;57.804;12.190;2023-01-16T08:53:49;7.88;;;1.67;;
24521;SDS011;12680;57.804;12.190;2023-01-16T08:56:17;8.68;;;1.70;;
24521;SDS011;12680;57.804;12.190;2023-01-16T08:58:43;15.00;;;2.10;;
24521;SDS011;12680;57.804;12.190;2023-01-16T09:01:10;4.55;;;1.73;;
24521;SDS011;12680;57.804;12.190;2023-01-16T09:03:37;8.13;;;1.45;;
24521;SDS011;12680;57.804;12.190;2023-01-16T09:06:04;12.55;;;1.98;;
24521;SDS011;12680;57.804;12.190;2023-01-16T09:08:31;11.45;;;2.00;;
24521;SDS011;12680;57.804;12.190;2023-01-16T09:10:57;8.02;;;1.35;;
24521;SDS011;12680;57.804;12.190;2023-01-16T09:13:42;11.57;;;1.85;;
24521;SDS011;12680;57.804;12.190;2023-01-16T09:16:19;8.70;;;1.45;;
24521;SDS011;12680;57.804;12.190;2023-01-16T09:18:48;8.73;;;1.30;;
24521;SDS011;12680;57.804;12.190;2023-01-16T09:21:15;10.32;;;1.60;;
24521;SDS011;12680;57.804;12.190;2023-01-16T09:23:45;7.10;;;1.42;;
24521;SDS011;12680;57.804;12.190;2023-01-16T09:26:12;14.27;;;1.30;;
24521;SDS011;12680;57.804;12.190;2023-01-16T09:28:39;11.98;;;1.95;;
24521;SDS011;12680;57.804;12.190;2023-01-16T09:31:06;15.30;;;1.65;;
24521;SDS011;12680;57.804;12.190;2023-01-16T09:33:33;8.98;;;1.98;;
24521;SDS011;12680;57.804;12.190;2023-01-16T09:36:00;8.77;;;1.63;;
24521;SDS011;12680;57.804;12.190;2023-01-16T09:38:26;7.22;;;1.25;;
24521;SDS011;12680;57.804;12.190;2023-01-16T09:40:54;11.73;;;1.75;;
24521;SDS011;12680;57.804;12.190;2023-01-16T09:46:13;12.35;;;2.40;;
24521;SDS011;12680;57.804;12.190;2023-01-16T09:51:50;11.40;;;1.98;;
24521;SDS011;12680;57.804;12.190;2023-01-16T09:54:41;9.80;;;1.42;;
24521;SDS011;12680;57.804;12.190;2023-01-16T09:57:31;11.45;;;1.75;;
24521;SDS011;12680;57.804;12.190;2023-01-16T10:00:19;8.80;;;1.55;;
24521;SDS011;12680;57.804;12.190;2023-01-16T10:02:49;6.38;;;1.40;;
24521;SDS011;12680;57.804;12.190;2023-01-16T10:05:16;10.88;;;1.63;;
24521;SDS011;12680;57.804;12.190;2023-01-16T10:07:51;13.63;;;2.47;;
24521;SDS011;12680;57.804;12.190;2023-01-16T10:10:44;9.70;;;1.27;;
24521;SDS011;12680;57.804;12.190;2023-01-16T10:15:57;15.82;;;1.88;;
24521;SDS011;12680;57.804;12.190;2023-01-16T10:23:53;10.23;;;1.45;;
24521;SDS011;12680;57.804;12.190;2023-01-16T10:26:29;12.73;;;2.30;;
24521;SDS011;12680;57.804;12.190;2023-01-16T10:31:53;9.88;;;1.95;;
24521;SDS011;12680;57.804;12.190;2023-01-16T10:34:33;13.43;;;2.10;;
24521;SDS011;12680;57.804;12.190;2023-01-16T10:37:06;10.57;;;1.83;;
24521;SDS011;12680;57.804;12.190;2023-01-16T10:39:34;10.38;;;1.60;;
24521;SDS011;12680;57.804;12.190;2023-01-16T10:45:12;10.52;;;1.98;;
24521;SDS011;12680;57.804;12.190;2023-01-16T10:48:06;7.22;;;1.58;;
24521;SDS011;12680;57.804;12.190;2023-01-16T10:50:58;10.13;;;1.80;;
24521;SDS011;12680;57.804;12.190;2023-01-16T10:53:26;10.15;;;1.80;;
24521;SDS011;12680;57.804;12.190;2023-01-16T10:55:54;11.15;;;1.63;;
24521;SDS011;12680;57.804;12.190;2023-01-16T11:01:03;7.47;;;1.35;;
24521;SDS011;12680;57.804;12.190;2023-01-16T11:03:40;10.18;;;1.60;;
24521;SDS011;12680;57.804;12.190;2023-01-16T11:06:21;14.35;;;1.55;;
24521;SDS011;12680;57.804;12.190;2023-01-16T11:11:32;12.70;;;1.83;;
24521;SDS011;12680;57.804;12.190;2023-01-16T11:14:24;21.42;;;5.88;;
24521;SDS011;12680;57.804;12.190;2023-01-16T11:17:26;12.90;;;4.57;;
24521;SDS011;12680;57.804;12.190;2023-01-16T11:20:33;17.73;;;4.90;;
24521;SDS011;12680;57.804;12.190;2023-01-16T11:23:17;14.55;;;4.13;;
24521;SDS011;12680;57.804;12.190;2023-01-16T11:25:47;7.90;;;2.33;;
24521;SDS011;12680;57.804;12.190;2023-01-16T11:28:26;11.50;;;2.45;;
24521;SDS011;12680;57.804;12.190;2023-01-16T11:30:55;20.52;;;3.45;;
24521;SDS011;12680;57.804;12.190;2023-01-16T11:35:57;8.07;;;3.53;;
24521;SDS011;12680;57.804;12.190;2023-01-16T11:38:27;13.45;;;3.05;;
24521;SDS011;12680;57.804;12.190;2023-01-16T11:40:56;12.70;;;2.20;;
24521;SDS011;12680;57.804;12.190;2023-01-16T11:43:26;13.57;;;2.78;;
24521;SDS011;12680;57.804;12.190;2023-01-16T11:46:29;14.43;;;3.33;;
24521;SDS011;12680;57.804;12.190;2023-01-16T11:49:03;13.45;;;2.83;;
24521;SDS011;12680;57.804;12.190;2023-01-16T11:51:41;15.23;;;3.22;;
24521;SDS011;12680;57.804;12.190;2023-01-16T11:54:12;13.55;;;2.80;;
24521;SDS011;12680;57.804;12.190;2023-01-16T11:59:36;11.32;;;3.10;;
24521;SDS011;12680;57.804;12.190;2023-01-16T12:08:00;13.63;;;2.88;;
24521;SDS011;12680;57.804;12.190;2023-01-16T12:22:15;10.77;;;2.75;;
24521;SDS011;12680;57.804;12.190;2023-01-16T12:30:20;7.35;;;1.70;;
24521;SDS011;12680;57.804;12.190;2023-01-16T12:39:19;10.05;;;2.00;;
24521;SDS011;12680;57.804;12.190;2023-01-16T12:45:39;5.13;;;1.90;;
24521;SDS011;12680;57.804;12.190;2023-01-16T12:51:24;6.03;;;1.90;;
24521;SDS011;12680;57.804;12.190;2023-01-16T12:54:14;8.82;;;1.52;;
24521;SDS011;12680;57.804;12.190;2023-01-16T12:59:56;10.48;;;1.70;;
24521;SDS011;12680;57.804;12.190;2023-01-16T13:02:35;7.78;;;1.45;;
24521;SDS011;12680;57.804;12.190;2023-01-16T13:05:13;6.45;;;1.50;;
24521;SDS011;12680;57.804;12.190;2023-01-16T13:07:49;5.68;;;0.88;;
24521;SDS011;12680;57.804;12.190;2023-01-16T13:10:22;7.55;;;1.40;;
24521;SDS011;12680;57.804;12.190;2023-01-16T13:13:21;7.03;;;2.83;;
24521;SDS011;12680;57.804;12.190;2023-01-16T13:21:22;2.65;;;0.95;;
24521;SDS011;12680;57.804;12.190;2023-01-16T13:23:58;6.25;;;1.38;;
24521;SDS011;12680;57.804;12.190;2023-01-16T13:26:25;5.45;;;1.08;;
24521;SDS011;12680;57.804;12.190;2023-01-16T13:28:59;5.80;;;1.20;;
24521;SDS011;12680;57.804;12.190;2023-01-16T13:31:48;2.33;;;0.77;;
24521;SDS011;12680;57.804;12.190;2023-01-16T13:34:33;7.70;;;1.42;;
24521;SDS011;12680;57.804;12.190;2023-01-16T13:37:25;7.63;;;1.42;;
24521;SDS011;12680;57.804;12.190;2023-01-16T13:43:02;2.38;;;0.80;;
24521;SDS011;12680;57.804;12.190;2023-01-16T13:45:52;5.13;;;1.50;;
24521;SDS011;12680;57.804;12.190;2023-01-16T13:48:21;5.97;;;1.33;;
24521;SDS011;12680;57.804;12.190;2023-01-16T13:50:58;7.35;;;1.40;;
24521;SDS011;12680;57.804;12.190;2023-01-16T13:53:32;4.25;;;1.60;;
24521;SDS011;12680;57.804;12.190;2023-01-16T13:56:13;1.05;;;0.88;;
24521;SDS011;12680;57.804;12.190;2023-01-16T13:58:47;2.20;;;0.73;;
24521;SDS011;12680;57.804;12.190;2023-01-16T14:01:30;3.85;;;1.00;;
24521;SDS011;12680;57.804;12.190;2023-01-16T14:06:51;6.00;;;0.73;;
24521;SDS011;12680;57.804;12.190;2023-01-16T14:12:24;3.75;;;1.42;;
24521;SDS011;12680;57.804;12.190;2023-01-16T14:15:19;6.35;;;1.20;;
24521;SDS011;12680;57.804;12.190;2023-01-16T14:20:50;4.28;;;1.10;;
24521;SDS011;12680;57.804;12.190;2023-01-16T14:23:30;6.87;;;0.70;;
24521;SDS011;12680;57.804;12.190;2023-01-16T14:26:33;4.53;;;0.80;;
24521;SDS011;12680;57.804;12.190;2023-01-16T14:34:46;2.90;;;1.25;;
24521;SDS011;12680;57.804;12.190;2023-01-16T14:37:22;2.13;;;0.90;;
24521;SDS011;12680;57.804;12.190;2023-01-16T14:40:01;4.70;;;1.42;;
24521;SDS011;12680;57.804;12.190;2023-01-16T14:45:28;3.20;;;1.10;;
24521;SDS011;12680;57.804;12.190;2023-01-16T14:56:53;6.55;;;1.10;;
24521;SDS011;12680;57.804;12.190;2023-01-16T14:59:33;1.52;;;0.77;;
24521;SDS011;12680;57.804;12.190;2023-01-16T15:02:10;5.45;;;0.95;;
24521;SDS011;12680;57.804;12.190;2023-01-16T15:08:10;3.83;;;1.30;;
24521;SDS011;12680;57.804;12.190;2023-01-16T15:10:41;7.75;;;1.30;;
24521;SDS011;12680;57.804;12.190;2023-01-16T15:13:12;3.58;;;1.27;;
24521;SDS011;12680;57.804;12.190;2023-01-16T15:15:51;4.95;;;1.35;;
24521;SDS011;12680;57.804;12.190;2023-01-16T15:18:26;5.03;;;1.10;;
24521;SDS011;12680;57.804;12.190;2023-01-16T15:21:13;3.78;;;1.38;;
24521;SDS011;12680;57.804;12.190;2023-01-16T15:24:03;7.95;;;1.30;;
24521;SDS011;12680;57.804;12.190;2023-01-16T15:26:35;6.47;;;1.30;;
24521;SDS011;12680;57.804;12.190;2023-01-16T15:29:37;3.65;;;1.30;;
24521;SDS011;12680;57.804;12.190;2023-01-16T15:32:23;6.43;;;1.70;;
24521;SDS011;12680;57.804;12.190;2023-01-16T15:38:14;4.00;;;1.10;;
24521;SDS011;12680;57.804;12.190;2023-01-16T15:40:35;6.18;;;2.15;;
24521;SDS011;12680;57.804;12.190;2023-01-16T15:43:02;5.30;;;2.20;;
24521;SDS011;12680;57.804;12.190;2023-01-16T15:46:15;5.15;;;3.17;;
24521;SDS011;12680;57.804;12.190;2023-01-16T15:49:17;6.55;;;3.40;;
24521;SDS011;12680;57.804;12.190;2023-01-16T15:51:56;6.90;;;2.40;;
24521;SDS011;12680;57.804;12.190;2023-01-16T15:54:24;7.78;;;2.17;;
24521;SDS011;12680;57.804;12.190;2023-01-16T15:56:51;6.43;;;2.13;;
24521;SDS011;12680;57.804;12.190;2023-01-16T16:02:19;8.45;;;3.35;;
24521;SDS011;12680;57.804;12.190;2023-01-16T16:04:54;10.98;;;4.78;;
24521;SDS011;12680;57.804;12.190;2023-01-16T16:07:24;10.13;;;3.43;;
24521;SDS011;12680;57.804;12.190;2023-01-16T16:09:53;10.82;;;5.35;;
24521;SDS011;12680;57.804;12.190;2023-01-16T16:12:22;20.48;;;9.45;;
24521;SDS011;12680;57.804;12.190;2023-01-16T16:15:02;11.88;;;4.18;;
24521;SDS011;12680;57.804;12.190;2023-01-16T16:18:12;11.93;;;5.60;;
24521;SDS011;12680;57.804;12.190;2023-01-16T16:20:41;7.10;;;3.50;;
24521;SDS011;12680;57.804;12.190;2023-01-16T16:23:17;8.38;;;2.95;;
24521;SDS011;12680;57.804;12.190;2023-01-16T16:28:27;2.47;;;1.97;;
24521;SDS011;12680;57.804;12.190;2023-01-16T16:31:14;4.65;;;2.35;;
24521;SDS011;12680;57.804;12.190;2023-01-16T16:33:54;6.50;;;2.33;;
24521;SDS011;12680;57.804;12.190;2023-01-16T16:36:34;6.97;;;3.28;;
24521;SDS011;12680;57.804;12.190;2023-01-16T16:39:02;7.20;;;3.80;;
24521;SDS011;12680;57.804;12.190;2023-01-16T16:41:43;11.80;;;3.38;;
24521;SDS011;12680;57.804;12.190;2023-01-16T16:44:43;7.32;;;2.63;;
24521;SDS011;12680;57.804;12.190;2023-01-16T16:47:14;9.77;;;2.95;;
24521;SDS011;12680;57.804;12.190;2023-01-16T16:49:53;5.40;;;2.45;;
24521;SDS011;12680;57.804;12.190;2023-01-16T16:52:22;10.18;;;2.13;;
24521;SDS011;12680;57.804;12.190;2023-01-16T16:57:59;7.25;;;2.20;;
24521;SDS011;12680;57.804;12.190;2023-01-16T17:00:29;14.45;;;2.63;;
24521;SDS011;12680;57.804;12.190;2023-01-16T17:03:04;4.30;;;2.70;;
24521;SDS011;12680;57.804;12.190;2023-01-16T17:05:35;6.90;;;2.30;;
24521;SDS011;12680;57.804;12.190;2023-01-16T17:08:02;8.65;;;3.03;;
24521;SDS011;12680;57.804;12.190;2023-01-16T17:10:30;4.90;;;2.20;;
24521;SDS011;12680;57.804;12.190;2023-01-16T17:12:56;3.80;;;2.05;;
24521;SDS011;12680;57.804;12.190;2023-01-16T17:15:23;8.23;;;3.30;;
24521;SDS011;12680;57.804;12.190;2023-01-16T17:17:50;6.88;;;2.60;;
24521;SDS011;12680;57.804;12.190;2023-01-16T17:20:23;6.13;;;2.38;;
24521;SDS011;12680;57.804;12.190;2023-01-16T17:22:51;5.95;;;2.53;;
24521;SDS011;12680;57.804;12.190;2023-01-16T17:25:18;7.80;;;2.35;;
24521;SDS011;12680;57.804;12.190;2023-01-16T17:27:46;9.35;;;2.50;;
24521;SDS011;12680;57.804;12.190;2023-01-16T17:30:14;10.90;;;2.00;;
24521;SDS011;12680;57.804;12.190;2023-01-16T17:32:42;5.55;;;2.33;;
24521;SDS011;12680;57.804;12.190;2023-01-16T17:35:16;5.57;;;2.60;;
24521;SDS011;12680;57.804;12.190;2023-01-16T17:37:43;6.40;;;2.20;;
24521;SDS011;12680;57.804;12.190;2023-01-16T17:40:12;7.68;;;2.05;;
24521;SDS011;12680;57.804;12.190;2023-01-16T17:42:38;8.18;;;2.00;;
24521;SDS011;12680;57.804;12.190;2023-01-16T17:45:42;7.15;;;2.08;;
24521;SDS011;12680;57.804;12.190;2023-01-16T17:48:28;7.63;;;2.40;;